EW1067 Weather Reports


Display with metric or nautical units.
time (UTC)temp
F
wind
direction
speed
MPH
gust
MPH
rain 1hr
in
rain 24hr
in
rain mn
in
humidity
%
barometer
mb
20240223070103 61 337 1.0 10.0 0.00 0.00 0.00 49 1014.3
20240223064528 61 350 2.0 8.0 0.00 0.00 0.00 48 1014.3
20240223063040 62 345 3.0 11.0 0.00 0.00 0.00 46 1014.4
20240223061549 62 336 5.0 12.0 0.00 0.00 0.00 45 1014.3
20240223060123 63 336 5.0 11.0 0.00 0.00 0.00 44 1014.2
20240223054520 63 335 5.0 12.0 0.00 0.00 0.00 42 1014.2
20240223053059 64 336 5.0 11.0 0.00 0.00 0.00 40 1014.0
20240223051527 64 323 4.0 15.0 0.00 0.00 0.00 38 1013.8
20240223050111 65 337 6.0 10.0 0.00 0.00 0.00 36 1013.9
20240223044600 65 331 6.0 10.0 0.00 0.00 0.00 33 1013.7
20240223043025 65 325 6.0 11.0 0.00 0.00 0.00 32 1013.4
20240223041629 65 336 6.0 11.0 0.00 0.00 0.00 31 1013.4
20240223040130 65 335 2.0 7.0 0.00 0.00 0.00 31 1013.3
20240223034524 65 325 2.0 7.0 0.00 0.00 0.00 30 1013.2
20240223033041 66 319 2.0 7.0 0.00 0.00 0.00 29 1013.1
20240223031602 66 336 2.0 5.0 0.00 0.00 0.00 28 1012.8
20240223030018 67 324 0.0 1.0 0.00 0.00 0.00 27 1012.7
20240223024525 67 316 0.0 0.0 0.00 0.00 0.00 28 1012.6
20240223023033 68 317 0.0 1.0 0.00 0.00 0.00 27 1012.7
20240223021545 69 327 0.0 0.0 0.00 0.00 0.00 26 1012.4
20240223020014 70 327 0.0 0.0 0.00 0.00 0.00 26 1012.1
20240223014520 71 327 0.0 0.0 0.00 0.00 0.00 24 1011.8
20240223013101 71 327 0.0 1.0 0.00 0.00 0.00 23 1011.4
20240223011532 72 327 0.0 3.0 0.00 0.00 0.00 22 1011.2
20240223010112 73 327 0.0 1.0 0.00 0.00 0.00 21 1011.2
20240223004508 75 327 0.0 2.0 0.00 0.00 0.00 20 1011.0
20240223003047 76 217 0.0 3.0 0.00 0.00 0.00 19 1010.7
20240223001528 77 62 0.0 5.0 0.00 0.00 0.00 18 1010.6
20240223000108 77 293 1.0 10.0 0.00 0.00 0.00 17 1010.4
20240222234606 78 169 0.0 1.0 0.00 0.00 0.00 19 1010.3
20240222233036 79 144 0.0 4.0 0.00 0.00 0.00 17 1010.0
20240222231518 79 165 0.0 6.0 0.00 0.00 0.00 19 1009.8
20240222230016 80 29 0.0 7.0 0.00 0.00 0.00 17 1009.7
20240222224523 80 183 0.0 4.0 0.00 0.00 0.00 17 1009.4
20240222223039 80 212 0.0 10.0 0.00 0.00 0.00 17 1009.4
20240222221539 81 328 0.0 8.0 0.00 0.00 0.00 17 1009.5
20240222220055 82 319 0.0 6.0 0.00 0.00 0.00 18 1009.4
20240222214542 82 350 0.0 10.0 0.00 0.00 0.00 18 1009.4
20240222213032 82 346 0.0 9.0 0.00 0.00 0.00 18 1009.6
20240222211544 83 157 0.0 6.0 0.00 0.00 0.00 17 1009.6
20240222210019 83 322 1.0 10.0 0.00 0.00 0.00 17 1009.8
20240222204556 83 309 2.0 10.0 0.00 0.00 0.00 16 1010.1
20240222203038 84 329 1.0 7.0 0.00 0.00 0.00 16 1010.2
20240222201509 84 129 0.0 4.0 0.00 0.00 0.00 17 1010.2
20240222200005 84 198 0.0 6.0 0.00 0.00 0.00 19 1010.3
20240222194539 83 202 0.0 9.0 0.00 0.00 0.00 22 1010.5
20240222193105 83 327 0.0 7.0 0.00 0.00 0.00 25 1010.8
20240222193003 82 20 0.0 7.0 0.00 0.00 0.00 26 1010.7
20240222191525 83 38 1.0 7.0 0.00 0.00 0.00 25 1011.0
20240222190051 82 29 0.0 8.0 0.00 0.00 0.00 27 1011.2
20240222184539 83 172 1.0 5.0 0.00 0.00 0.00 28 1011.5
20240222183059 83 345 0.0 3.0 0.00 0.00 0.00 30 1011.7
20240222181503 82 327 0.0 2.0 0.00 0.00 0.00 33 1011.9
20240222180115 81 273 1.0 7.0 0.00 0.00 0.00 33 1012.0
20240222174544 80 28 0.0 4.0 0.00 0.00 0.00 39 1012.2
20240222173057 79 197 1.0 6.0 0.00 0.00 0.00 43 1012.3
20240222171501 78 360 2.0 8.0 0.00 0.00 0.00 47 1012.5
20240222170112 76 360 0.0 7.0 0.00 0.00 0.00 55 1012.5
20240222164509 76 360 0.0 4.0 0.00 0.00 0.00 63 1012.4
20240222163040 74 97 0.0 3.0 0.00 0.00 0.00 66 1012.6
20240222161510 73 336 0.0 4.0 0.00 0.00 0.00 71 1012.5
20240222160006 70 195 0.0 2.0 0.00 0.00 0.00 78 1012.5
20240222154533 68 183 0.0 1.0 0.00 0.00 0.00 88 1012.5
20240222153036 65 183 0.0 1.0 0.00 0.00 0.00 92 1012.6
20240222151550 64 183 0.0 0.0 0.00 0.00 0.00 94 1012.7
20240222150105 63 183 0.0 2.0 0.00 0.00 0.00 96 1012.7
20240222144547 62 183 0.0 1.0 0.00 0.00 0.00 96 1012.4
20240222143016 62 183 0.0 0.0 0.00 0.00 0.00 97 1012.4
20240222141546 62 183 0.0 0.0 0.00 0.00 0.00 96 1012.4
20240222140102 61 183 0.0 0.0 0.00 0.00 0.00 97 1012.5
20240222134538 61 183 0.0 0.0 0.00 0.00 0.00 96 1011.9
20240222133044 61 183 0.0 0.0 0.00 0.00 0.00 96 1011.7
20240222131550 61 183 0.0 3.0 0.00 0.00 0.00 96 1011.6
20240222130106 61 183 0.0 4.0 0.00 0.00 0.00 96 1011.3
20240222124530 61 183 0.0 0.0 0.00 0.00 0.00 96 1011.7
20240222123006 61 183 0.0 2.0 0.00 0.00 0.00 96 1011.5
20240222121548 61 183 0.0 1.0 0.00 0.00 0.00 96 1011.4
20240222120115 61 183 0.0 0.0 0.00 0.00 0.00 96 1011.6
20240222114519 61 183 0.0 1.0 0.00 0.00 0.00 95 1011.6
20240222113053 61 183 0.0 0.0 0.00 0.00 0.00 95 1011.8
20240222111529 61 183 0.0 0.0 0.00 0.00 0.00 95 1011.9
20240222110105 61 183 0.0 3.0 0.00 0.00 0.00 95 1012.0
20240222104503 61 183 0.0 2.0 0.00 0.00 0.00 95 1012.1
20240222103033 61 184 0.0 0.0 0.00 0.00 0.00 95 1012.3
20240222101510 61 184 0.0 0.0 0.00 0.00 0.00 94 1012.4
20240222100008 62 148 0.0 4.0 0.00 0.00 0.00 94 1011.9
20240222094519 61 173 0.0 2.0 0.00 0.00 0.00 94 1012.4
20240222093049 61 173 0.0 0.0 0.00 0.00 0.00 94 1012.4
20240222090047 61 169 0.0 7.0 0.00 0.00 0.00 94 1011.7
20240222084523 61 167 2.0 8.0 0.00 0.00 0.00 94 1011.3
20240222083059 61 153 5.0 11.0 0.00 0.00 0.00 94 1011.4
20240222081543 61 169 3.0 8.0 0.00 0.00 0.00 94 1011.4
20240222080014 61 161 1.0 8.0 0.00 0.00 0.00 94 1011.9
20240222074524 61 165 2.0 10.0 0.00 0.00 0.00 93 1011.9
20240222073005 61 160 4.0 9.0 0.00 0.00 0.00 93 1011.7
20240222071538 62 149 5.0 10.0 0.00 0.00 0.00 93 1011.9